Latest Coastal Weather Observations for Lihou Reef Lighthouse

IDQ60701

Issued at 8:02 am EST Saturday 24 June 2017 (issued every 10 minutes, with the page automatically refreshed every 10 minutes)

About coastal observations | Map of coastal stations | Coastal observations for QLD | Marine services | Other Formats
Station Details ID: 200880 Name: LIHOU REEF LIGHTHOUSE Lat: -17.13 Lon: 152.15 Height: 0.0 m
Data from the previous 72 hours. | See also: Recent months at Lihou Reef Lighthouse
Date/Time
EST
Temp
°C
Wind Pressure Rain since
9am
mm
Weather Cloud Vis
km
Sea
Height
m
Swell
Dir  Spd
kts
Gust
kts
hPa Trend Height
m
Period
s
Dir
24/08:00am 24.2 SE 15 17 1014.6 - - - - - - - - -
24/07:30am 24.1 E 13 17 1014.6 - - - - - - - - -
24/07:00am 23.3 SSE 16 20 1014.4 - - - - - - - - -
24/06:30am 23.7 SE 15 19 1014.3 - - - - - - - - -
24/06:00am 23.4 SE 18 22 1014.3 - - - - - - - - -
24/05:30am 23.8 SE 16 19 1014.1 - - - - - - - - -
24/05:00am 23.6 SE 16 21 1014.0 - - - - - - - - -
24/04:30am 24.1 ESE 15 18 1013.9 - - - - - - - - -
24/04:00am 24.1 SE 16 19 1013.9 - - - - - - - - -
24/03:30am 24.6 ESE 15 19 1014.0 - - - - - - - - -
24/03:00am 24.6 ESE 14 16 1014.2 - - - - - - - - -
24/02:30am 24.5 ESE 15 20 1014.4 - - - - - - - - -
24/02:00am 24.5 SE 15 19 1014.5 - - - - - - - - -
24/01:30am 24.4 SE 17 21 1014.8 - - - - - - - - -
24/01:00am 24.6 SE 16 20 1015.1 - - - - - - - - -
24/12:30am 24.4 SE 16 19 1015.5 - - - - - - - - -
24/12:00am 24.6 SE 14 17 1015.8 - - - - - - - - -
 
Date/Time
EST
Temp
°C
Wind Pressure Rain since
9am
mm
Weather Cloud Vis
km
Sea
Height
m
Swell
Dir  Spd
kts
Gust
kts
hPa Trend Height
m
Period
s
Dir
23/11:30pm 24.6 SE 13 16 1016.0 - - - - - - - - -
23/11:00pm 24.7 SE 13 16 1016.1 - - - - - - - - -
23/10:30pm 24.5 ESE 14 17 1016.3 - - - - - - - - -
23/10:00pm 24.7 ESE 12 15 1016.6 - - - - - - - - -
23/09:30pm 24.7 ESE 13 16 1016.6 - - - - - - - - -
23/09:00pm 24.5 ESE 14 16 1016.4 - - - - - - - - -
23/08:30pm 24.7 ESE 15 18 1016.2 - - - - - - - - -
23/08:00pm 24.6 ESE 16 19 1016.0 - - - - - - - - -
23/07:30pm 24.6 SE 18 21 1015.6 - - - - - - - - -
23/07:00pm 24.6 SE 17 21 1015.4 - - - - - - - - -
23/06:30pm 24.7 SE 16 19 1015.1 - - - - - - - - -
23/06:00pm 24.8 SE 17 19 1014.9 - - - - - - - - -
23/05:30pm 24.7 SE 15 18 1014.8 - - - - - - - - -
23/05:00pm 24.8 ESE 14 17 1014.6 - - - - - - - - -
23/04:30pm 25.0 ESE 14 17 1014.2 - - - - - - - - -
23/04:00pm 25.3 ESE 15 18 1014.0 - - - - - - - - -
23/03:30pm 25.2 SE 16 19 1013.8 - - - - - - - - -
23/03:00pm 25.2 ESE 14 18 1013.8 - - - - - - - - -
23/02:30pm 25.1 SE 14 16 1014.1 - - - - - - - - -
23/02:00pm 24.9 SE 17 20 1014.3 - - - - - - - - -
23/01:30pm 24.9 SE 16 20 1014.4 - - - - - - - - -
23/01:00pm 24.9 SE 18 21 1014.4 - - - - - - - - -
23/12:30pm 25.1 SE 13 18 1015.0 - - - - - - - - -
23/12:00pm 24.8 SE 13 15 1015.5 - - - - - - - - -
23/11:30am 23.6 SSE 12 14 1016.1 - - - - - - - - -
23/11:00am 24.2 SE 14 17 1016.5 - - - - - - - - -
23/10:30am 24.5 SE 20 24 1016.6 - - - - - - - - -
23/10:00am 24.4 SE 19 24 1016.9 - - - - - - - - -
23/09:30am 24.7 SE 17 21 1017.2 - - - - - - - - -
23/09:00am 25.1 ESE 11 14 1017.3 - - - - - - - - -
23/08:30am 24.9 SE 16 19 1017.2 - - - - - - - - -
23/08:00am 24.8 SE 19 23 1016.9 - - - - - - - - -
23/07:30am 24.6 ESE 17 21 1016.6 - - - - - - - - -
23/07:00am 24.5 SE 17 21 1016.2 - - - - - - - - -
23/06:30am 24.1 SE 17 21 1016.2 - - - - - - - - -
23/06:00am 24.1 SE 18 24 1015.9 - - - - - - - - -
23/05:30am 24.6 ESE 17 20 1015.8 - - - - - - - - -
23/05:00am 24.5 ESE 18 22 1015.5 - - - - - - - - -
23/04:30am 24.5 SE 20 25 1015.4 - - - - - - - - -
23/04:00am 24.4 SE 20 23 1015.4 - - - - - - - - -
23/03:30am 24.5 SE 20 25 1015.4 - - - - - - - - -
23/03:00am 24.3 SE 20 25 1015.5 - - - - - - - - -
23/02:30am 23.8 SE 18 23 1015.9 - - - - - - - - -
23/02:00am 24.1 SE 20 23 1016.1 - - - - - - - - -
23/01:30am 23.9 SE 19 26 1016.2 - - - - - - - - -
23/01:00am 23.9 SSE 20 25 1016.5 - - - - - - - - -
23/12:30am 24.2 SSE 20 23 1017.0 - - - - - - - - -
23/12:00am 24.8 SE 18 22 1017.2 - - - - - - - - -
 
Date/Time
EST
Temp
°C
Wind Pressure Rain since
9am
mm
Weather Cloud Vis
km
Sea
Height
m
Swell
Dir  Spd
kts
Gust
kts
hPa Trend Height
m
Period
s
Dir
22/11:30pm 24.8 SE 18 21 1017.3 - - - - - - - - -
22/11:00pm 24.4 SE 19 23 1017.6 - - - - - - - - -
22/10:30pm 24.9 SE 19 27 1017.8 - - - - - - - - -
22/10:00pm 24.8 SE 21 26 1017.7 - - - - - - - - -
22/09:30pm 24.8 SE 19 23 1018.0 - - - - - - - - -
22/09:00pm 24.9 SE 21 25 1018.0 - - - - - - - - -
22/08:30pm 24.8 SE 20 26 1017.8 - - - - - - - - -
22/08:00pm 24.6 SE 21 24 1017.6 - - - - - - - - -
22/07:30pm 25.0 SSE 19 23 1017.4 - - - - - - - - -
22/07:00pm 24.8 SSE 18 23 1017.1 - - - - - - - - -
22/06:30pm 24.6 SSE 21 24 1016.8 - - - - - - - - -
22/06:00pm 24.6 SSE 18 23 1016.6 - - - - - - - - -
22/05:30pm 24.4 SSE 20 23 1016.2 - - - - - - - - -
22/05:00pm 24.5 SSE 20 25 1016.1 - - - - - - - - -
22/04:30pm 24.6 SE 17 21 1016.0 - - - - - - - - -
22/04:00pm 24.8 SE 17 20 1015.8 - - - - - - - - -
22/03:30pm 24.8 SE 18 22 1015.6 - - - - - - - - -
22/03:00pm 24.7 SE 17 20 1015.7 - - - - - - - - -
22/02:30pm 24.7 SE 17 21 1015.8 - - - - - - - - -
22/02:00pm 24.9 SE 17 20 1016.2 - - - - - - - - -
22/01:30pm 24.9 SE 17 20 1016.3 - - - - - - - - -
22/01:00pm 24.8 SE 18 22 1016.4 - - - - - - - - -
22/12:30pm 24.6 SE 17 21 1017.0 - - - - - - - - -
22/12:00pm 24.9 SE 18 22 1017.4 - - - - - - - - -
22/11:30am 24.6 SE 23 27 1017.5 - - - - - - - - -
22/11:00am 24.6 SE 19 23 1018.0 - - - - - - - - -
22/10:30am 24.7 SSE 19 23 1018.1 - - - - - - - - -
22/10:00am 24.4 SSE 21 26 1018.5 - - - - - - - - -
22/09:30am 24.5 SSE 21 27 1018.6 - - - - - - - - -
22/09:00am 24.6 SSE 21 26 1018.6 - - - - - - - - -
22/08:30am 24.5 SSE 22 27 1018.4 - - - - - - - - -
22/08:00am 24.5 SSE 23 27 1018.0 - - - - - - - - -
22/07:30am 24.6 SE 19 23 1017.9 - - - - - - - - -
22/07:00am 24.6 SE 19 23 1017.6 - - - - - - - - -
22/06:30am 24.6 SE 22 27 1017.2 - - - - - - - - -
22/06:00am 24.6 SSE 20 23 1017.1 - - - - - - - - -
22/05:30am 24.5 SSE 20 25 1016.8 - - - - - - - - -
22/05:00am 24.0 SSE 21 26 1016.7 - - - - - - - - -
22/04:30am 23.9 SSE 20 24 1016.5 - - - - - - - - -
22/04:00am 24.0 SSE 19 25 1016.3 - - - - - - - - -
22/03:30am 23.6 SSE 20 23 1016.5 - - - - - - - - -
22/03:00am 23.4 SSE 21 25 1016.6 - - - - - - - - -
22/02:30am 23.7 SSE 20 23 1016.7 - - - - - - - - -
22/02:00am 24.6 SE 17 20 1017.0 - - - - - - - - -
22/01:30am 24.6 SE 16 22 1017.3 - - - - - - - - -
22/01:00am 24.6 SE 16 19 1017.7 - - - - - - - - -
22/12:30am 24.8 SE 17 21 1017.8 - - - - - - - - -
22/12:00am 24.6 SE 19 22 1017.8 - - - - - - - - -
 
Date/Time
EST
Temp
°C
Wind Pressure Rain since
9am
mm
Weather Cloud Vis
km
Sea
Height
m
Swell
Dir  Spd
kts
Gust
kts
hPa Trend Height
m
Period
s
Dir
21/11:30pm 24.7 SE 17 25 1018.1 - - - - - - - - -
21/11:00pm 24.8 SE 18 22 1018.3 - - - - - - - - -
21/10:30pm 24.7 SE 18 23 1018.6 - - - - - - - - -
21/10:00pm 24.7 SE 18 21 1018.7 - - - - - - - - -
21/09:30pm 24.7 SE 19 23 1018.7 - - - - - - - - -
21/09:00pm 24.6 SSE 18 23 1018.5 - - - - - - - - -
21/08:30pm 24.7 SE 19 22 1018.2 - - - - - - - - -
21/08:00pm 24.7 SE 20 24 1018.0 - - - - - - - - -
21/07:30pm 24.6 SE 19 24 1017.7 - - - - - - - - -
21/07:00pm 24.7 SSE 19 22 1017.2 - - - - - - - - -
21/06:30pm 24.8 SSE 19 22 1017.0 - - - - - - - - -
21/06:00pm 24.6 SSE 19 23 1016.5 - - - - - - - - -
21/05:30pm 24.6 SSE 20 24 1016.3 - - - - - - - - -
21/05:00pm 24.6 SSE 20 23 1016.1 - - - - - - - - -
21/04:30pm 24.8 SSE 20 23 1015.7 - - - - - - - - -
21/04:00pm 24.8 SSE 20 23 1015.5 - - - - - - - - -
21/03:30pm 24.7 SSE 20 24 1015.1 - - - - - - - - -
21/03:00pm 24.7 SSE 19 24 1015.0 - - - - - - - - -
21/02:30pm 24.8 SSE 21 24 1015.0 - - - - - - - - -
21/02:00pm 24.6 SSE 21 25 1014.9 - - - - - - - - -
21/01:30pm 24.7 SSE 22 25 1015.0 - - - - - - - - -
21/01:00pm 24.8 SSE 22 26 1015.2 - - - - - - - - -
21/12:30pm 24.7 SSE 22 25 1015.5 - - - - - - - - -
21/12:00pm 24.8 SSE 20 23 1016.0 - - - - - - - - -
21/11:30am 24.9 SSE 21 26 1016.3 - - - - - - - - -
21/11:00am 24.8 SSE 21 27 1016.5 - - - - - - - - -
21/10:30am 24.7 SSE 22 25 1016.6 - - - - - - - - -
21/10:00am 24.7 SSE 21 24 1016.8 - - - - - - - - -
21/09:30am 24.9 SSE 21 25 1017.0 - - - - - - - - -
21/09:00am 24.8 SSE 21 24 1017.0 - - - - - - - - -
21/08:30am 24.7 SSE 21 25 1016.9 - - - - - - - - -

Other Formats:

Comma delimited format used in spreadsheet applications
http://www.bom.gov.au/fwo/IDQ60701/IDQ60701.94293.axf

JavaScript Object Notation format (JSON) in row-major order
http://www.bom.gov.au/fwo/IDQ60701/IDQ60701.94293.json